Main page
METAR-TAF:

METAR-TAF

Airports :

Governor Francisco Gabrielli International Airport

Mendoza, Argentina

latitude: 32-50S, longitude: 068-47W, elevation: 705 m

Current weather observation

The report was made 56 minutes ago, at 20:00 UTC
Wind 4 kt from the South
Temperature 24°C
Humidity 41%
Pressure 1017 hPa
Visibility 10 km or more
no clouds below 1500 m and no cumulonimbus

METAR: SAME 092000Z 18004KT CAVOK 24/10 Q1017

Time: 17:56 (20:56 UTC)

Forecast

The report was made 3 hours and 56 minutes ago, at 17:00 UTC
Forecast valid from 09 at 18 UTC to 10 at 18 UTC
Wind 5 kt from the East/Southeast
Visibility 10 km or more
no clouds below 1500 m and no cumulonimbus
Becoming
from 09 at 18 UTC to 09 at 20 UTC
Wind 5 kt from the North/Northeast
Becoming
from 10 at 09 UTC to 10 at 11 UTC
Wind 5 kt from the South/Southeast

TAF: SAME 091700Z 0918/1018 11005KT CAVOK TX25/0920Z TN10/1010Z BECMG 0918/0920 02005KT BECMG 1009/1011 16005KT

Weather observations and forecasts of more than 4000 airports (METAR and TAF reports).

The available stations are represented by yellow and red dots on the map.

Hover mouse over dot to see the name of the station.

Then click to see weather observations and forecasts.

To change the map : click on the green buttons with a black cross to zoom in, on the green button with a dash to zoom out, or on the green arrows for adjacent maps.


METAR-TAF: